Kuttawa, Kentucky
Current Conditions -  °F | °C
As of 2:55 PM on Friday 31 Oct 2014 (Local Time) from K5M9 Reporting Station
Overcast Overcast  
Wind Chill: 35°   Ceiling: 5000
Heat Index: 43°   Visibility: 10mi
Dew Point: 25°   Wind: 17mph
Humidity: 49%   Direction: 340°NNW
Pressure: 30.15"   Gusts: 37mph
Location:  37.06°N, 88.13°W
Report Text: K5M9 311955Z AUTO 34015G32KT 10SM BKN050 OVC055 06/M04 A3015 RMK AO2 T00611039
Loading
Personal Weather Stations






























Interactive Weather Map
Tropical Storm Tracking
New forecast layout! Learn more

10-Day Weather Forecast

Advertisements
Track Severe Weather on mobile